createdAt,value
2018-08-11T00:00:10.741Z,44.43
2018-08-11T00:01:10.925Z,44.43
2018-08-11T00:02:11.111Z,43.70
2018-08-11T00:03:11.296Z,44.68
2018-08-11T00:04:11.474Z,50.05
2018-08-11T00:05:11.679Z,50.05
2018-08-11T00:06:11.867Z,55.91
2018-08-11T00:07:12.043Z,47.85
2018-08-11T00:08:12.227Z,47.85
2018-08-11T00:09:12.422Z,48.34
2018-08-11T00:10:12.597Z,47.85
2018-08-11T00:11:12.807Z,60.79
2018-08-11T00:12:12.970Z,53.22
2018-08-11T00:13:13.121Z,44.19
2018-08-11T00:14:13.314Z,46.63
2018-08-11T00:15:13.498Z,47.36
2018-08-11T00:16:13.687Z,45.17
2018-08-11T00:17:13.866Z,46.14
2018-08-11T00:18:14.046Z,46.88
2018-08-11T00:19:14.230Z,46.88
2018-08-11T00:20:14.416Z,45.41
2018-08-11T00:21:14.602Z,45.41
2018-08-11T00:22:14.789Z,47.61
2018-08-11T00:23:14.976Z,47.85
2018-08-11T00:24:15.158Z,47.85
2018-08-11T00:25:15.349Z,46.63
2018-08-11T00:26:15.540Z,46.88
2018-08-11T00:27:15.726Z,50.29
2018-08-11T00:28:15.911Z,48.83
2018-08-11T00:29:16.096Z,47.61
2018-08-11T00:30:16.285Z,49.56
2018-08-11T00:31:16.466Z,56.40
2018-08-11T00:32:16.642Z,52.00
2018-08-11T00:33:16.849Z,52.00
2018-08-11T00:34:17.020Z,54.69
2018-08-11T00:35:17.212Z,48.34
2018-08-11T00:36:17.421Z,47.36
2018-08-11T00:37:17.575Z,48.10
2018-08-11T00:38:17.776Z,47.85
2018-08-11T00:39:17.946Z,46.14
2018-08-11T00:40:18.141Z,45.65
2018-08-11T00:41:18.336Z,44.92
2018-08-11T00:42:18.507Z,47.85
2018-08-11T00:43:18.691Z,50.54
2018-08-11T00:44:18.879Z,55.42
2018-08-11T00:45:19.065Z,54.69
2018-08-11T00:46:19.249Z,47.12
2018-08-11T00:47:19.446Z,45.65
2018-08-11T00:48:19.646Z,48.10
2018-08-11T00:49:19.842Z,46.63
2018-08-11T00:50:20.034Z,47.61
2018-08-11T00:51:20.177Z,48.34
2018-08-11T00:52:20.366Z,44.68
2018-08-11T00:53:20.550Z,43.95
2018-08-11T00:54:20.741Z,48.83
2018-08-11T00:55:20.930Z,48.58
2018-08-11T00:56:21.112Z,46.39
2018-08-11T00:57:21.298Z,46.88
2018-08-11T00:58:21.483Z,49.07
2018-08-11T00:59:21.669Z,42.24
2018-08-11T01:00:21.858Z,44.19
2018-08-11T01:01:22.043Z,43.21
2018-08-11T01:02:22.285Z,43.95
2018-08-11T01:03:22.405Z,43.70
2018-08-11T01:04:22.592Z,45.41
2018-08-11T01:05:22.783Z,41.75
2018-08-11T01:06:22.970Z,43.70
2018-08-11T01:07:23.149Z,40.28
2018-08-11T01:08:23.335Z,45.90
2018-08-11T01:09:23.515Z,47.12
2018-08-11T01:10:23.708Z,50.78
2018-08-11T01:11:23.874Z,49.56
2018-08-11T01:12:24.066Z,44.43
2018-08-11T01:13:24.236Z,45.65
2018-08-11T01:14:24.421Z,45.41
2018-08-11T01:15:24.607Z,50.54
2018-08-11T01:16:24.783Z,47.61
2018-08-11T01:17:24.982Z,45.17
2018-08-11T01:18:25.184Z,49.32
2018-08-11T01:19:25.406Z,48.34
2018-08-11T01:20:25.526Z,47.36
2018-08-11T01:21:25.709Z,48.83
2018-08-11T01:22:25.896Z,51.03
2018-08-11T01:23:26.081Z,46.63
2018-08-11T01:24:26.292Z,47.36
2018-08-11T01:25:26.439Z,53.96
2018-08-11T01:26:27.149Z,49.56
2018-08-11T01:27:26.824Z,51.03
2018-08-11T01:28:27.004Z,49.07
2018-08-11T01:29:27.196Z,48.34
2018-08-11T01:30:27.372Z,48.83
2018-08-11T01:31:27.583Z,48.83
2018-08-11T01:32:27.737Z,49.32
2018-08-11T01:33:27.925Z,52.98
2018-08-11T01:34:28.112Z,52.00
2018-08-11T01:35:28.301Z,56.64
2018-08-11T01:36:28.481Z,55.66
2018-08-11T01:37:28.667Z,57.62
2018-08-11T01:38:28.891Z,53.71
2018-08-11T01:39:29.031Z,51.51
2018-08-11T01:40:29.216Z,52.73
2018-08-11T01:41:29.410Z,56.40
2018-08-11T01:42:29.590Z,56.15
2018-08-11T01:43:29.783Z,58.59
2018-08-11T01:44:29.976Z,54.93
2018-08-11T01:45:30.157Z,61.28
2018-08-11T01:46:30.355Z,57.62
2018-08-11T01:47:30.532Z,55.42
2018-08-11T01:48:30.716Z,50.29
2018-08-11T01:49:30.917Z,50.78
2018-08-11T01:50:31.114Z,51.03
2018-08-11T01:51:31.317Z,50.29
2018-08-11T01:52:31.458Z,49.56
2018-08-11T01:53:31.671Z,48.58
2018-08-11T01:54:31.833Z,48.58
2018-08-11T01:55:32.013Z,47.12
2018-08-11T01:56:32.203Z,49.56
2018-08-11T01:57:32.394Z,56.64
2018-08-11T01:58:32.576Z,53.47
2018-08-11T01:59:32.792Z,57.13
2018-08-11T02:00:32.998Z,50.54
2018-08-11T02:01:33.186Z,51.27
2018-08-11T02:02:33.378Z,52.98
2018-08-11T02:03:33.545Z,57.62
2018-08-11T02:04:33.723Z,52.25
2018-08-11T02:05:33.919Z,46.14
2018-08-11T02:06:34.104Z,47.36
2018-08-11T02:07:34.286Z,55.18
2018-08-11T02:08:34.467Z,55.66
2018-08-11T02:09:34.649Z,51.51
2018-08-11T02:10:34.838Z,48.10
2018-08-11T02:11:35.028Z,53.96
2018-08-11T02:12:35.219Z,49.32
2018-08-11T02:13:35.393Z,46.39
2018-08-11T02:14:35.576Z,48.58
2018-08-11T02:15:35.766Z,61.77
2018-08-11T02:16:35.956Z,56.40
2018-08-11T02:17:36.135Z,43.95
2018-08-11T02:18:36.323Z,50.78
2018-08-11T02:19:36.496Z,53.71
2018-08-11T02:20:36.687Z,54.20
2018-08-11T02:21:36.874Z,46.14
2018-08-11T02:22:37.052Z,49.56
2018-08-11T02:23:37.237Z,47.12
2018-08-11T02:24:37.457Z,47.85
2018-08-11T02:25:37.601Z,52.49
2018-08-11T02:26:37.780Z,49.07
2018-08-11T02:27:37.967Z,52.00
2018-08-11T02:28:38.150Z,51.51
2018-08-11T02:29:38.337Z,48.34
2018-08-11T02:30:38.525Z,57.37
2018-08-11T02:31:38.709Z,47.85
2018-08-11T02:32:38.899Z,46.14
2018-08-11T02:33:39.073Z,50.54
2018-08-11T02:34:39.290Z,45.65
2018-08-11T02:35:39.472Z,46.39
2018-08-11T02:36:39.661Z,51.76
2018-08-11T02:37:39.851Z,60.06
2018-08-11T02:38:40.028Z,61.52
2018-08-11T02:39:40.222Z,53.47
2018-08-11T02:40:40.408Z,50.29
2018-08-11T02:41:40.596Z,59.57
2018-08-11T02:42:40.800Z,59.08
2018-08-11T02:43:40.977Z,55.66
2018-08-11T02:44:41.154Z,44.68
2018-08-11T02:45:41.327Z,44.19
2018-08-11T02:46:41.521Z,45.41
2018-08-11T02:47:41.716Z,44.92
2018-08-11T02:48:41.887Z,41.50
2018-08-11T02:49:42.063Z,43.46
2018-08-11T02:50:42.237Z,46.88
2018-08-11T02:51:42.423Z,49.56
2018-08-11T02:52:42.600Z,42.72
2018-08-11T02:53:42.785Z,44.68
2018-08-11T02:54:42.963Z,46.14
2018-08-11T02:55:43.147Z,52.73
2018-08-11T02:56:43.361Z,48.58
2018-08-11T02:57:43.513Z,50.29
2018-08-11T02:58:43.703Z,67.14
2018-08-11T02:59:43.888Z,64.94
2018-08-11T03:00:44.058Z,52.00
2018-08-11T03:01:44.267Z,53.96
2018-08-11T03:02:44.447Z,58.84
2018-08-11T03:03:44.632Z,54.44
2018-08-11T03:04:44.843Z,51.27
2018-08-11T03:05:45.012Z,50.29
2018-08-11T03:06:45.180Z,48.58
2018-08-11T03:07:45.384Z,48.34
2018-08-11T03:08:45.571Z,49.07
2018-08-11T03:09:45.746Z,48.34
2018-08-11T03:10:45.934Z,53.22
2018-08-11T03:11:46.120Z,51.03
2018-08-11T03:12:46.325Z,49.56
2018-08-11T03:13:46.523Z,60.06
2018-08-11T03:14:46.710Z,59.81
2018-08-11T03:15:46.890Z,52.73
2018-08-11T03:16:47.089Z,57.86
2018-08-11T03:17:47.272Z,60.79
2018-08-11T03:18:47.447Z,49.56
2018-08-11T03:19:47.665Z,45.65
2018-08-11T03:20:47.844Z,49.32
2018-08-11T03:21:48.006Z,46.14
2018-08-11T03:22:48.192Z,42.72
2018-08-11T03:23:48.388Z,49.56
2018-08-11T03:24:48.565Z,44.92
2018-08-11T03:25:48.729Z,44.68
2018-08-11T03:26:48.911Z,47.36
2018-08-11T03:27:49.100Z,51.27
2018-08-11T03:28:49.283Z,50.05
2018-08-11T03:29:49.465Z,52.73
2018-08-11T03:30:49.654Z,49.07
2018-08-11T03:31:49.822Z,51.76
2018-08-11T03:32:50.016Z,52.00
2018-08-11T03:33:50.213Z,60.06
2018-08-11T03:34:50.370Z,68.60
2018-08-11T03:35:50.554Z,50.78
2018-08-11T03:36:50.749Z,50.05
2018-08-11T03:37:50.970Z,56.64
2018-08-11T03:38:51.157Z,56.88
2018-08-11T03:39:51.345Z,52.00
2018-08-11T03:40:51.539Z,51.76
2018-08-11T03:41:51.862Z,50.78
2018-08-11T03:42:51.898Z,48.34
2018-08-11T03:43:52.083Z,50.05
2018-08-11T03:44:52.260Z,49.56
2018-08-11T03:45:52.469Z,48.83
2018-08-11T03:46:52.645Z,46.88
2018-08-11T03:47:52.796Z,54.93
2018-08-11T03:48:52.985Z,53.47
2018-08-11T03:49:53.178Z,52.98
2018-08-11T03:50:53.359Z,52.00
2018-08-11T03:51:53.532Z,50.78
2018-08-11T03:52:53.717Z,52.98
2018-08-11T03:53:53.901Z,53.47
2018-08-11T03:54:54.083Z,57.86
2018-08-11T03:55:54.267Z,59.81
2018-08-11T03:56:54.480Z,47.12
2018-08-11T03:57:54.631Z,47.36
2018-08-11T03:58:54.810Z,59.33
2018-08-11T03:59:54.992Z,47.85
2018-08-11T04:00:55.179Z,48.58
2018-08-11T04:01:55.390Z,51.03
2018-08-11T04:02:55.555Z,44.19
2018-08-11T04:03:55.744Z,48.10
2018-08-11T04:04:55.922Z,72.75
2018-08-11T04:05:56.133Z,78.61
2018-08-11T04:06:56.290Z,75.44
2018-08-11T04:07:56.464Z,57.86
2018-08-11T04:08:56.667Z,57.37
2018-08-11T04:09:56.859Z,57.37
2018-08-11T04:10:57.018Z,68.12
2018-08-11T04:11:57.237Z,63.72
2018-08-11T04:12:57.391Z,63.72
2018-08-11T04:13:57.559Z,45.90
2018-08-11T04:14:57.764Z,52.00
2018-08-11T04:15:57.965Z,60.30
2018-08-11T04:16:58.109Z,49.32
2018-08-11T04:17:58.315Z,47.85
2018-08-11T04:18:58.514Z,47.85
2018-08-11T04:19:58.710Z,52.25
2018-08-11T04:20:58.869Z,56.88
2018-08-11T04:21:59.090Z,56.15
2018-08-11T04:22:59.255Z,54.69
2018-08-11T04:23:59.437Z,49.56
2018-08-11T04:24:59.644Z,45.41
2018-08-11T04:25:59.822Z,47.61
2018-08-11T04:26:59.989Z,67.63
2018-08-11T04:28:00.185Z,71.78
2018-08-11T04:29:00.378Z,71.78
2018-08-11T04:30:00.556Z,71.29
2018-08-11T04:31:00.707Z,73.73
2018-08-11T04:32:00.908Z,75.20
2018-08-11T04:33:01.079Z,70.80
2018-08-11T04:34:01.262Z,69.58
2018-08-11T04:35:01.443Z,71.78
2018-08-11T04:36:01.675Z,70.80
2018-08-11T04:37:01.829Z,68.85
2018-08-11T04:38:02.004Z,69.34
2018-08-11T04:39:02.199Z,69.34
2018-08-11T04:40:02.383Z,61.77
2018-08-11T04:41:02.605Z,63.72
2018-08-11T04:42:02.801Z,65.43
2018-08-11T04:43:02.945Z,53.22
2018-08-11T04:44:03.118Z,54.44
2018-08-11T04:45:03.317Z,56.15
2018-08-11T04:46:03.537Z,41.99
2018-08-11T04:47:03.850Z,39.79
2018-08-11T04:48:03.932Z,42.24
2018-08-11T04:49:04.116Z,39.79
2018-08-11T04:50:04.424Z,43.95
2018-08-11T04:51:04.464Z,43.46
2018-08-11T04:52:04.644Z,48.34
2018-08-11T04:53:04.836Z,47.85
2018-08-11T04:54:05.026Z,44.92
2018-08-11T04:55:05.219Z,41.50
2018-08-11T04:56:05.404Z,41.26
2018-08-11T04:57:05.588Z,45.41
2018-08-11T04:58:05.776Z,50.78
2018-08-11T04:59:05.947Z,47.61
2018-08-11T05:00:06.128Z,48.83
2018-08-11T05:01:06.342Z,63.23
2018-08-11T05:02:06.541Z,43.21
2018-08-11T05:03:06.724Z,44.43
2018-08-11T05:04:06.910Z,44.68
2018-08-11T05:05:07.097Z,43.95
2018-08-11T05:06:07.278Z,46.39
2018-08-11T05:07:07.465Z,46.63
2018-08-11T05:08:07.660Z,46.39
2018-08-11T05:09:07.861Z,53.47
2018-08-11T05:10:08.026Z,70.80
2018-08-11T05:11:08.205Z,47.36
2018-08-11T05:12:08.403Z,43.21
2018-08-11T05:13:08.588Z,56.64
2018-08-11T05:14:08.774Z,49.56
2018-08-11T05:15:08.965Z,45.90
2018-08-11T05:16:09.149Z,46.88
2018-08-11T05:17:09.327Z,53.96
2018-08-11T05:18:09.519Z,51.27
2018-08-11T05:19:09.708Z,48.83
2018-08-11T05:20:09.893Z,54.44
2018-08-11T05:21:10.078Z,49.07
2018-08-11T05:22:10.253Z,51.51
2018-08-11T05:23:10.436Z,47.36
2018-08-11T05:24:10.623Z,56.40
2018-08-11T05:25:10.799Z,57.86
2018-08-11T05:26:11.032Z,61.28
2018-08-11T05:27:11.190Z,59.08
2018-08-11T05:28:11.375Z,65.92
2018-08-11T05:29:11.560Z,61.77
2018-08-11T05:30:11.751Z,60.55
2018-08-11T05:31:11.930Z,56.40
2018-08-11T05:32:12.151Z,46.88
2018-08-11T05:33:12.343Z,48.10
2018-08-11T05:34:12.503Z,52.00
2018-08-11T05:35:12.677Z,67.63
2018-08-11T05:36:12.893Z,63.96
2018-08-11T05:37:13.037Z,60.06
2018-08-11T05:38:13.209Z,48.83
2018-08-11T05:39:13.399Z,68.85
2018-08-11T05:40:13.604Z,59.33
2018-08-11T05:41:13.772Z,47.61
2018-08-11T05:42:13.944Z,55.18
2018-08-11T05:43:14.123Z,49.07
2018-08-11T05:44:14.308Z,43.46
2018-08-11T05:45:14.498Z,57.13
2018-08-11T05:46:14.673Z,60.06
2018-08-11T05:47:14.858Z,55.66
2018-08-11T05:48:15.037Z,67.63
2018-08-11T05:49:15.232Z,67.63
2018-08-11T05:50:15.415Z,65.19
2018-08-11T05:51:15.600Z,68.60
2018-08-11T05:52:15.786Z,44.19
2018-08-11T05:53:15.969Z,44.68
2018-08-11T05:54:16.151Z,45.41
2018-08-11T05:55:16.395Z,45.17
2018-08-11T05:56:16.536Z,47.12
2018-08-11T05:57:16.700Z,50.05
2018-08-11T05:58:16.889Z,44.43
2018-08-11T05:59:17.069Z,43.21
2018-08-11T06:00:17.275Z,49.80
2018-08-11T06:01:17.457Z,68.85
2018-08-11T06:02:17.622Z,44.43
2018-08-11T06:03:17.809Z,47.12
2018-08-11T06:04:18.022Z,55.91
2018-08-11T06:05:18.182Z,56.88
2018-08-11T06:06:18.377Z,59.81
2018-08-11T06:07:18.553Z,59.08
2018-08-11T06:08:18.738Z,60.55
2018-08-11T06:09:18.923Z,44.19
2018-08-11T06:10:19.111Z,47.12
2018-08-11T06:11:19.299Z,68.12
2018-08-11T06:12:19.487Z,70.56
2018-08-11T06:13:19.665Z,60.55
2018-08-11T06:14:19.845Z,48.10
2018-08-11T06:15:20.041Z,79.59
2018-08-11T06:16:20.251Z,69.09
2018-08-11T06:17:20.434Z,62.01
2018-08-11T06:18:20.657Z,42.97
2018-08-11T06:19:20.802Z,43.70
2018-08-11T06:20:21.013Z,58.11
2018-08-11T06:21:21.201Z,47.12
2018-08-11T06:22:21.377Z,47.36
2018-08-11T06:23:21.565Z,61.28
2018-08-11T06:24:21.752Z,64.45
2018-08-11T06:25:21.916Z,63.23
2018-08-11T06:26:22.112Z,54.20
2018-08-11T06:27:22.293Z,46.39
2018-08-11T06:28:22.485Z,52.73
2018-08-11T06:29:22.670Z,46.39
2018-08-11T06:30:22.861Z,48.58
2018-08-11T06:31:23.067Z,60.30
2018-08-11T06:32:23.237Z,51.51
2018-08-11T06:33:23.429Z,55.66
2018-08-11T06:34:23.623Z,63.48
2018-08-11T06:35:23.812Z,60.06
2018-08-11T06:36:24.027Z,66.41
2018-08-11T06:37:24.190Z,64.21
2018-08-11T06:38:24.402Z,63.72
2018-08-11T06:39:24.571Z,57.62
2018-08-11T06:40:24.810Z,60.55
2018-08-11T06:41:24.945Z,60.30
2018-08-11T06:42:25.132Z,66.89
2018-08-11T06:43:25.326Z,47.12
2018-08-11T06:44:25.523Z,44.43
2018-08-11T06:45:25.690Z,47.12
2018-08-11T06:46:25.890Z,50.05
2018-08-11T06:47:26.089Z,59.81
2018-08-11T06:48:26.273Z,63.23
2018-08-11T06:49:26.468Z,75.44
2018-08-11T06:50:26.656Z,60.30
2018-08-11T06:51:26.844Z,59.08
2018-08-11T06:52:27.055Z,73.24
2018-08-11T06:53:27.232Z,55.42
2018-08-11T06:54:27.426Z,49.07
2018-08-11T06:55:27.682Z,43.46
2018-08-11T06:56:27.834Z,48.34
2018-08-11T06:57:27.992Z,45.65
2018-08-11T06:58:28.186Z,48.83
2018-08-11T06:59:28.372Z,53.96
2018-08-11T07:00:28.567Z,49.07
2018-08-11T07:01:28.745Z,50.54
2018-08-11T07:02:28.936Z,57.62
2018-08-11T07:03:29.130Z,44.19
2018-08-11T07:04:29.328Z,50.54
2018-08-11T07:05:29.513Z,48.34
2018-08-11T07:06:29.740Z,46.39
2018-08-11T07:07:29.874Z,46.88
2018-08-11T07:08:30.061Z,50.29
2018-08-11T07:09:30.266Z,54.44
2018-08-11T07:10:30.454Z,60.06
2018-08-11T07:11:30.640Z,50.29
2018-08-11T07:12:30.852Z,51.03
2018-08-11T07:13:31.022Z,54.93
2018-08-11T07:14:31.211Z,53.71
2018-08-11T07:15:31.395Z,70.56
2018-08-11T07:16:31.600Z,66.41
2018-08-11T07:17:31.783Z,61.04
2018-08-11T07:18:31.967Z,47.12
2018-08-11T07:19:32.163Z,62.50
2018-08-11T07:20:32.356Z,57.86
2018-08-11T07:21:32.549Z,50.05
2018-08-11T07:22:32.749Z,55.18
2018-08-11T07:23:32.925Z,51.51
2018-08-11T07:24:33.113Z,54.20
2018-08-11T07:25:33.304Z,52.00
2018-08-11T07:26:33.529Z,61.28
2018-08-11T07:27:33.688Z,60.30
2018-08-11T07:28:33.901Z,58.59
2018-08-11T07:29:34.061Z,47.85
2018-08-11T07:30:34.249Z,46.14
2018-08-11T07:31:34.449Z,49.07
2018-08-11T07:32:34.632Z,51.27
2018-08-11T07:33:34.842Z,45.90
2018-08-11T07:34:35.101Z,44.19
2018-08-11T07:35:35.220Z,59.81
2018-08-11T07:36:35.466Z,62.01
2018-08-11T07:37:35.595Z,65.67
2018-08-11T07:38:35.788Z,56.64
2018-08-11T07:39:36.026Z,70.31
2018-08-11T07:40:36.187Z,57.13
2018-08-11T07:41:36.363Z,63.96
2018-08-11T07:42:36.554Z,58.35
2018-08-11T07:43:36.755Z,68.12
2018-08-11T07:44:36.952Z,56.64
2018-08-11T07:45:37.190Z,62.26
2018-08-11T07:46:37.383Z,56.40
2018-08-11T07:47:37.654Z,56.64
2018-08-11T07:48:37.779Z,52.49
2018-08-11T07:49:37.993Z,64.94
2018-08-11T07:50:38.211Z,52.25
2018-08-11T07:51:38.402Z,53.96
2018-08-11T07:52:38.598Z,52.25
2018-08-11T07:53:38.792Z,60.55
2018-08-11T07:54:38.969Z,54.44
2018-08-11T07:55:39.200Z,45.65
2018-08-11T07:56:39.371Z,50.05
2018-08-11T07:57:39.564Z,57.37
2018-08-11T07:58:39.758Z,52.73
2018-08-11T07:59:39.949Z,59.57
2018-08-11T08:00:40.188Z,56.88
2018-08-11T08:01:40.370Z,57.62
2018-08-11T08:02:40.520Z,45.41
2018-08-11T08:03:40.713Z,49.56
2018-08-11T08:04:40.912Z,50.78
2018-08-11T08:05:41.105Z,52.73
2018-08-11T08:06:41.296Z,46.88
2018-08-11T08:07:41.494Z,60.30
2018-08-11T08:08:41.675Z,63.72
2018-08-11T08:09:41.855Z,57.37
2018-08-11T08:10:42.055Z,51.27
2018-08-11T08:11:42.238Z,52.00
2018-08-11T08:12:42.430Z,55.66
2018-08-11T08:13:42.666Z,55.42
2018-08-11T08:14:42.808Z,47.61
2018-08-11T08:15:43.001Z,60.06
2018-08-11T08:16:43.207Z,56.40
2018-08-11T08:17:43.412Z,52.73
2018-08-11T08:18:43.579Z,46.14
2018-08-11T08:19:43.789Z,50.54
2018-08-11T08:20:44.003Z,44.43
2018-08-11T08:21:44.207Z,50.78
2018-08-11T08:22:44.406Z,44.43
2018-08-11T08:23:44.598Z,48.58
2018-08-11T08:24:44.793Z,51.76
2018-08-11T08:25:45.013Z,51.76
2018-08-11T08:26:45.235Z,67.14
2018-08-11T08:27:45.376Z,54.20
2018-08-11T08:28:45.574Z,51.76
2018-08-11T08:29:45.787Z,64.70
2018-08-11T08:30:45.938Z,60.55
2018-08-11T08:31:46.140Z,61.77
2018-08-11T08:32:46.336Z,65.19
2018-08-11T08:33:46.568Z,65.92
2018-08-11T08:34:46.758Z,58.11
2018-08-11T08:35:46.970Z,54.69
2018-08-11T08:36:47.132Z,65.67
2018-08-11T08:37:47.323Z,49.56
2018-08-11T08:38:47.517Z,51.76
2018-08-11T08:39:47.713Z,54.44
2018-08-11T08:40:47.905Z,55.66
2018-08-11T08:41:48.095Z,57.13
2018-08-11T08:42:48.291Z,55.66
2018-08-11T08:43:48.482Z,57.37
2018-08-11T08:44:48.666Z,53.47
2018-08-11T08:45:48.860Z,53.22
2018-08-11T08:46:49.052Z,58.11
2018-08-11T08:47:49.251Z,62.74
2018-08-11T08:48:49.485Z,61.04
2018-08-11T08:49:49.632Z,53.96
2018-08-11T08:50:49.839Z,63.96
2018-08-11T08:51:50.022Z,57.62
2018-08-11T08:52:50.196Z,59.57
2018-08-11T08:53:50.382Z,55.66
2018-08-11T08:54:50.580Z,62.01
2018-08-11T08:55:50.773Z,58.11
2018-08-11T08:56:50.977Z,64.70
2018-08-11T08:57:51.188Z,60.55
2018-08-11T08:58:51.331Z,60.30
2018-08-11T08:59:51.524Z,56.88
2018-08-11T09:00:51.733Z,58.84
2018-08-11T09:01:51.942Z,62.01
2018-08-11T09:02:52.083Z,53.22
2018-08-11T09:03:52.281Z,56.88
2018-08-11T09:04:52.487Z,57.62
2018-08-11T09:05:52.650Z,54.20
2018-08-11T09:06:52.843Z,55.66
2018-08-11T09:07:53.056Z,67.63
2018-08-11T09:08:53.223Z,60.06
2018-08-11T09:09:53.420Z,60.06
2018-08-11T09:10:53.602Z,58.35
2018-08-11T09:11:53.867Z,58.84
2018-08-11T09:12:54.039Z,54.20
2018-08-11T09:13:54.424Z,56.64
2018-08-11T09:14:54.364Z,62.26
2018-08-11T09:15:54.563Z,60.06
2018-08-11T09:16:54.742Z,64.94
2018-08-11T09:17:54.930Z,67.63
2018-08-11T09:18:55.140Z,68.60
2018-08-11T09:19:55.335Z,59.81
2018-08-11T09:20:55.524Z,60.55
2018-08-11T09:21:55.713Z,62.99
2018-08-11T09:22:55.907Z,61.77
2018-08-11T09:23:56.100Z,51.51
2018-08-11T09:24:56.292Z,53.47
2018-08-11T09:25:56.484Z,76.66
2018-08-11T09:26:56.672Z,54.69
2018-08-11T09:27:56.865Z,59.57
2018-08-11T09:28:57.082Z,59.08
2018-08-11T09:29:57.281Z,49.07
2018-08-11T09:30:57.473Z,63.96
2018-08-11T09:31:57.678Z,62.26
2018-08-11T09:32:57.850Z,60.79
2018-08-11T09:33:58.029Z,51.76
2018-08-11T09:34:58.233Z,57.13
2018-08-11T09:35:59.299Z,56.64
2018-08-11T09:36:58.611Z,61.04
2018-08-11T09:37:58.809Z,59.81
2018-08-11T09:38:58.991Z,61.04
2018-08-11T09:39:59.182Z,57.86
2018-08-11T09:40:59.563Z,56.40
2018-08-11T09:42:00.192Z,58.59
2018-08-11T09:42:59.780Z,49.32
2018-08-11T09:43:59.971Z,61.04
2018-08-11T09:45:00.164Z,58.35
2018-08-11T09:46:00.381Z,61.28
2018-08-11T09:47:00.559Z,53.47
2018-08-11T09:48:00.725Z,56.40
2018-08-11T09:49:00.891Z,58.11
2018-08-11T09:50:01.079Z,62.74
2018-08-11T09:51:01.260Z,60.30
2018-08-11T09:52:01.448Z,68.85
2018-08-11T09:53:01.642Z,58.11
2018-08-11T09:54:01.823Z,62.74
2018-08-11T09:55:02.029Z,58.59
2018-08-11T09:56:02.218Z,63.96
2018-08-11T09:57:02.382Z,52.25
2018-08-11T09:58:02.569Z,51.51
2018-08-11T09:59:02.760Z,57.62
2018-08-11T10:00:02.929Z,61.77
2018-08-11T10:01:03.121Z,57.13
2018-08-11T10:02:03.310Z,60.55
2018-08-11T10:03:03.512Z,65.43
2018-08-11T10:04:03.696Z,64.45
2018-08-11T10:05:03.906Z,60.79
2018-08-11T10:06:04.079Z,58.84
2018-08-11T10:07:04.267Z,60.30
2018-08-11T10:08:04.484Z,61.77
2018-08-11T10:09:04.654Z,61.52
2018-08-11T10:10:04.842Z,62.50
2018-08-11T10:11:05.031Z,62.50
2018-08-11T10:12:05.234Z,56.88
2018-08-11T10:13:05.408Z,61.04
2018-08-11T10:14:05.612Z,58.84
2018-08-11T10:15:05.785Z,61.77
2018-08-11T10:16:06.006Z,74.22
2018-08-11T10:17:06.181Z,65.67
2018-08-11T10:18:06.373Z,63.96
2018-08-11T10:19:06.551Z,60.30
2018-08-11T10:20:06.765Z,57.37
2018-08-11T10:21:06.931Z,62.99
2018-08-11T10:22:07.131Z,64.21
2018-08-11T10:23:07.322Z,62.50
2018-08-11T10:24:07.516Z,64.94
2018-08-11T10:25:07.717Z,56.15
2018-08-11T10:26:07.896Z,68.12
2018-08-11T10:27:08.089Z,66.65
2018-08-11T10:28:08.281Z,59.08
2018-08-11T10:29:08.502Z,60.79
2018-08-11T10:30:08.687Z,61.77
2018-08-11T10:31:08.865Z,63.96
2018-08-11T10:32:09.056Z,62.99
2018-08-11T10:33:09.247Z,63.23
2018-08-11T10:34:09.429Z,63.23
2018-08-11T10:35:09.617Z,64.21
2018-08-11T10:36:09.811Z,61.52
2018-08-11T10:37:09.997Z,73.97
2018-08-11T10:38:10.321Z,67.63
2018-08-11T10:39:10.360Z,59.81
2018-08-11T10:40:11.284Z,56.64
2018-08-11T10:41:10.782Z,58.84
2018-08-11T10:42:10.974Z,70.80
2018-08-11T10:43:11.166Z,62.26
2018-08-11T10:44:11.348Z,72.27
2018-08-11T10:45:11.562Z,69.58
2018-08-11T10:46:11.755Z,56.64
2018-08-11T10:47:12.034Z,66.16
2018-08-11T10:48:12.123Z,65.43
2018-08-11T10:49:12.313Z,63.23
2018-08-11T10:50:12.518Z,65.19
2018-08-11T10:51:12.683Z,63.72
2018-08-11T10:52:12.875Z,64.94
2018-08-11T10:53:13.064Z,65.43
2018-08-11T10:54:13.249Z,59.33
2018-08-11T10:55:13.458Z,61.28
2018-08-11T10:56:13.634Z,58.84
2018-08-11T10:57:13.819Z,61.28
2018-08-11T10:58:14.011Z,68.12
2018-08-11T10:59:14.204Z,57.37
2018-08-11T11:00:14.381Z,62.01
2018-08-11T11:01:14.575Z,59.08
2018-08-11T11:02:14.757Z,63.48
2018-08-11T11:03:14.955Z,64.70
2018-08-11T11:04:15.119Z,62.26
2018-08-11T11:05:15.308Z,57.13
2018-08-11T11:06:15.498Z,54.44
2018-08-11T11:07:15.676Z,55.18
2018-08-11T11:08:15.873Z,70.80
2018-08-11T11:09:16.065Z,55.91
2018-08-11T11:10:16.278Z,68.12
2018-08-11T11:11:16.409Z,53.47
2018-08-11T11:12:16.602Z,67.38
2018-08-11T11:13:16.804Z,69.82
2018-08-11T11:14:17.026Z,54.69
2018-08-11T11:15:17.159Z,56.88
2018-08-11T11:16:17.375Z,55.66
2018-08-11T11:17:17.563Z,51.03
2018-08-11T11:18:17.749Z,56.88
2018-08-11T11:19:17.935Z,69.82
2018-08-11T11:20:18.130Z,72.27
2018-08-11T11:21:18.327Z,68.60
2018-08-11T11:22:18.518Z,68.60
2018-08-11T11:23:18.699Z,71.04
2018-08-11T11:24:18.897Z,60.30
2018-08-11T11:25:19.083Z,59.57
2018-08-11T11:26:19.260Z,52.73
2018-08-11T11:27:19.450Z,60.55
2018-08-11T11:28:19.645Z,58.84
2018-08-11T11:29:19.839Z,54.20
2018-08-11T11:30:20.027Z,66.89
2018-08-11T11:31:20.219Z,54.69
2018-08-11T11:32:20.405Z,61.04
2018-08-11T11:33:20.613Z,62.99
2018-08-11T11:34:20.781Z,73.73
2018-08-11T11:35:20.977Z,83.01
2018-08-11T11:36:21.159Z,54.93
2018-08-11T11:37:21.424Z,57.37
2018-08-11T11:38:21.563Z,57.37
2018-08-11T11:39:21.753Z,52.49
2018-08-11T11:40:21.917Z,57.86
2018-08-11T11:41:22.135Z,76.42
2018-08-11T11:42:22.305Z,73.49
2018-08-11T11:43:22.522Z,54.93
2018-08-11T11:44:22.684Z,58.35
2018-08-11T11:45:22.898Z,66.41
2018-08-11T11:46:23.044Z,52.00
2018-08-11T11:47:23.233Z,54.44
2018-08-11T11:48:23.416Z,55.91
2018-08-11T11:49:23.616Z,53.96
2018-08-11T11:50:23.812Z,52.00
2018-08-11T11:51:24.008Z,60.79
2018-08-11T11:52:24.166Z,84.23
2018-08-11T11:53:24.345Z,65.67
2018-08-11T11:54:24.564Z,59.81
2018-08-11T11:55:24.719Z,59.81
2018-08-11T11:56:24.916Z,53.96
2018-08-11T11:57:25.106Z,49.32
2018-08-11T11:58:25.321Z,49.80
2018-08-11T11:59:25.509Z,54.69
2018-08-11T12:00:25.681Z,51.27
2018-08-11T12:01:25.873Z,50.54
2018-08-11T12:02:26.067Z,51.51
2018-08-11T12:03:26.252Z,51.51
2018-08-11T12:04:26.492Z,59.81
2018-08-11T12:05:26.625Z,52.73
2018-08-11T12:06:26.827Z,56.15
2018-08-11T12:07:27.009Z,53.47
2018-08-11T12:08:27.180Z,50.29
2018-08-11T12:09:27.369Z,72.51
2018-08-11T12:10:27.560Z,75.44
2018-08-11T12:11:27.753Z,57.37
2018-08-11T12:12:27.935Z,59.08
2018-08-11T12:13:28.132Z,56.64
2018-08-11T12:14:28.354Z,49.80
2018-08-11T12:15:28.498Z,53.47
2018-08-11T12:16:28.689Z,62.26
2018-08-11T12:17:28.884Z,59.33
2018-08-11T12:18:29.065Z,54.20
2018-08-11T12:19:29.382Z,49.80
2018-08-11T12:20:29.470Z,52.00
2018-08-11T12:21:29.660Z,49.56
2018-08-11T12:22:29.847Z,48.10
2018-08-11T12:23:30.020Z,48.58
2018-08-11T12:24:30.217Z,45.41
2018-08-11T12:25:30.428Z,61.77
2018-08-11T12:26:30.598Z,61.77
2018-08-11T12:27:30.790Z,49.32
2018-08-11T12:28:30.971Z,48.83
2018-08-11T12:29:31.188Z,54.44
2018-08-11T12:30:31.359Z,65.67
2018-08-11T12:31:31.584Z,51.51
2018-08-11T12:32:31.723Z,75.44
2018-08-11T12:33:31.913Z,56.15
2018-08-11T12:34:32.146Z,52.00
2018-08-11T12:35:32.331Z,60.55
2018-08-11T12:36:32.517Z,48.83
2018-08-11T12:37:32.743Z,47.61
2018-08-11T12:38:32.884Z,49.32
2018-08-11T12:39:33.074Z,44.68
2018-08-11T12:40:33.309Z,52.73
2018-08-11T12:41:33.469Z,52.49
2018-08-11T12:42:33.677Z,60.30
2018-08-11T12:43:33.969Z,57.62
2018-08-11T12:44:34.063Z,53.96
2018-08-11T12:45:34.294Z,65.43
2018-08-11T12:46:34.453Z,56.15
2018-08-11T12:47:34.623Z,44.43
2018-08-11T12:48:34.824Z,50.54
2018-08-11T12:49:35.043Z,60.06
2018-08-11T12:50:35.227Z,61.28
2018-08-11T12:51:35.410Z,59.57
2018-08-11T12:52:35.608Z,72.51
2018-08-11T12:53:35.856Z,72.75
2018-08-11T12:54:36.009Z,73.73